Felts Field
KSFF : now visible

Airfield :











YOU CAN JOIN US ON...

 
LOGIN :

Register | Disclaimer

   EN    FR    IT 

 









Legend :    VFR   Marginal VFR   IFR   Intensive IFR   Very Intensive IFR
Visi :
Ceiling :
>= 8 km
>= 3000ft
5 to 8 km
1000 to 3000 ft
1500m to 5 km
500 to 1000 ft
800 to 1500m
200 to 500 ft
< 800m
< 200 ft
Symbols :   Thunderstorms  Fog  Heavy snow  Heavy precipitations  Wind > 20 kt






- Airport Elevation : 1953 ft


KSFF - Felts Field

CURRENT METAR :
  • 241153Z AUTO 24008KT 10SM OVC095 01/M04 A3021 RMK AO2 SLP242 70016 T00111039 10033 20011 51019

EXPIRED METARs :
  • 241053Z AUTO 23008KT 10SM OVC090 02/M03 A3020 RMK AO2 SLP236 T00171033
  • 240953Z AUTO 23008KT 10SM SCT043 BKN080 OVC100 02/M03 A3018 RMK AO2 SLP233 T00171033

TAF KSFF
Valid from the 24 at 12:00 until the 25 at 12:00 UTC


241120Z 2412/2512 23007KT P6SM SCT012 BKN080
FM241700 23010G17KT P6SM SCT070
FM250100 26005KT P6SM FEW200
FM250600 VRB03KT P6SM SCT200



MET'MAP, your aeronautical weather chart ! - Copyright ORBIFLY December 2007 - Disclaimer

ORBIFLY MET'MAP TEAM :

Programming & Development : Alexandra Zaïnal
Concept & original design : Baudouin d'Aumeries
Assistance for programming : Marc-Olivier Méhu
Technical & hardware support : Manuel Goepfert

Contact : metmap@orbifly.com




SOURCES & CREDITS :

   NOAA       Earth
Advisory